createdAt,value
2023-05-01T00:00:31.651Z,995.07
2023-05-01T00:01:31.843Z,995.03
2023-05-01T00:02:31.955Z,995.07
2023-05-01T00:03:32.098Z,995.07
2023-05-01T00:04:31.663Z,995.05
2023-05-01T00:05:31.920Z,995.04
2023-05-01T00:06:31.405Z,994.99
2023-05-01T00:07:32.106Z,995.00
2023-05-01T00:08:31.913Z,995.00
2023-05-01T00:09:32.111Z,994.99
2023-05-01T00:10:31.268Z,994.96
2023-05-01T00:11:32.005Z,994.98
2023-05-01T00:12:31.861Z,994.98
2023-05-01T00:13:31.960Z,994.93
2023-05-01T00:14:31.119Z,994.95
2023-05-01T00:15:32.022Z,994.91
2023-05-01T00:16:32.019Z,994.88
2023-05-01T00:17:31.359Z,994.90
2023-05-01T00:18:32.000Z,994.89
2023-05-01T00:19:31.891Z,994.91
2023-05-01T00:20:31.234Z,994.87
2023-05-01T00:21:31.977Z,994.84
2023-05-01T00:22:31.893Z,994.84
2023-05-01T00:23:32.076Z,994.85
2023-05-01T00:24:31.927Z,994.85
2023-05-01T00:25:31.008Z,994.82
2023-05-01T00:26:31.153Z,994.79
2023-05-01T00:27:31.888Z,994.83
2023-05-01T00:28:31.809Z,994.83
2023-05-01T00:29:30.941Z,994.82
2023-05-01T00:30:30.977Z,994.81
2023-05-01T00:31:31.074Z,994.77
2023-05-01T00:32:31.112Z,994.76
2023-05-01T00:33:31.109Z,994.77
2023-05-01T00:34:31.152Z,994.77
2023-05-01T00:35:31.227Z,994.77
2023-05-01T00:36:30.956Z,994.77
2023-05-01T00:37:31.215Z,994.73
2023-05-01T00:38:31.309Z,994.70
2023-05-01T00:39:31.410Z,994.66
2023-05-01T00:40:31.262Z,994.73
2023-05-01T00:41:31.007Z,994.70
2023-05-01T00:42:30.835Z,994.69
2023-05-01T00:43:31.500Z,994.68
2023-05-01T00:44:31.702Z,994.69
2023-05-01T00:45:31.505Z,994.61
2023-05-01T00:46:31.636Z,994.69
2023-05-01T00:47:30.973Z,994.63
2023-05-01T00:48:30.731Z,994.66
2023-05-01T00:49:30.818Z,994.57
2023-05-01T00:50:30.740Z,994.55
2023-05-01T00:51:30.932Z,994.59
2023-05-01T00:52:30.804Z,994.51
2023-05-01T00:53:30.832Z,994.50
2023-05-01T00:54:30.683Z,994.51
2023-05-01T00:55:31.527Z,994.48
2023-05-01T00:56:31.429Z,994.45
2023-05-01T00:57:31.336Z,994.41
2023-05-01T00:58:31.502Z,994.44
2023-05-01T00:59:31.391Z,994.41
2023-05-01T01:00:30.599Z,994.38
2023-05-01T01:01:30.751Z,994.40
2023-05-01T01:02:31.545Z,994.38
2023-05-01T01:03:30.513Z,994.35
2023-05-01T01:04:30.906Z,994.36
2023-05-01T01:05:31.331Z,994.35
2023-05-01T01:06:30.556Z,994.35
2023-05-01T01:07:30.446Z,994.35
2023-05-01T01:08:32.531Z,994.33
2023-05-01T01:09:30.469Z,994.28
2023-05-01T01:10:31.352Z,994.24
2023-05-01T01:11:30.566Z,994.32
2023-05-01T01:12:30.601Z,994.30
2023-05-01T01:13:30.705Z,994.28
2023-05-01T01:14:30.357Z,994.24
2023-05-01T01:15:30.692Z,994.20
2023-05-01T01:16:30.586Z,994.22
2023-05-01T01:17:31.095Z,994.23
2023-05-01T01:18:30.835Z,994.19
2023-05-01T01:19:30.876Z,994.19
2023-05-01T01:20:30.960Z,994.18
2023-05-01T01:21:30.950Z,994.10
2023-05-01T01:22:30.475Z,994.13
2023-05-01T01:23:30.369Z,994.15
2023-05-01T01:24:30.315Z,994.15
2023-05-01T01:25:30.959Z,994.13
2023-05-01T01:26:30.828Z,994.13
2023-05-01T01:27:31.195Z,994.14
2023-05-01T01:28:31.304Z,994.11
2023-05-01T01:29:30.831Z,994.09
2023-05-01T01:30:30.971Z,994.08
2023-05-01T01:31:30.466Z,994.11
2023-05-01T01:32:31.080Z,994.11
2023-05-01T01:33:30.696Z,994.10
2023-05-01T01:34:30.114Z,994.05
2023-05-01T01:35:31.028Z,994.06
2023-05-01T01:36:30.905Z,994.08
2023-05-01T01:37:30.639Z,994.08
2023-05-01T01:38:30.973Z,994.05
2023-05-01T01:39:30.866Z,994.04
2023-05-01T01:40:31.029Z,994.01
2023-05-01T01:42:40.272Z,994.00
2023-05-01T01:43:40.134Z,993.95
2023-05-01T01:44:40.138Z,993.96
2023-05-01T01:45:40.227Z,993.94
2023-05-01T01:46:40.266Z,993.88
2023-05-01T01:47:40.144Z,993.94
2023-05-01T01:48:40.126Z,993.92
2023-05-01T01:49:40.129Z,993.89
2023-05-01T01:50:40.729Z,993.93
2023-05-01T01:51:41.161Z,993.90
2023-05-01T01:52:40.052Z,993.86
2023-05-01T01:53:40.038Z,993.85
2023-05-01T01:54:40.006Z,993.86
2023-05-01T01:55:40.004Z,993.83
2023-05-01T01:56:40.016Z,993.81
2023-05-01T01:57:40.044Z,993.80
2023-05-01T01:58:39.964Z,993.78
2023-05-01T01:59:40.049Z,993.77
2023-05-01T02:00:39.991Z,993.75
2023-05-01T02:01:40.034Z,993.80
2023-05-01T02:02:40.161Z,993.75
2023-05-01T02:03:40.078Z,993.73
2023-05-01T02:04:39.901Z,993.74
2023-05-01T02:05:39.879Z,993.77
2023-05-01T02:06:40.084Z,993.72
2023-05-01T02:07:39.967Z,993.70
2023-05-01T02:08:39.843Z,993.74
2023-05-01T02:09:39.994Z,993.68
2023-05-01T02:10:39.817Z,993.70
2023-05-01T02:11:39.874Z,993.74
2023-05-01T02:12:39.789Z,993.65
2023-05-01T02:13:39.783Z,993.66
2023-05-01T02:14:39.758Z,993.66
2023-05-01T02:15:39.804Z,993.68
2023-05-01T02:16:39.835Z,993.65
2023-05-01T02:17:39.732Z,993.64
2023-05-01T02:18:39.703Z,993.62
2023-05-01T02:19:39.698Z,993.58
2023-05-01T02:20:39.686Z,993.57
2023-05-01T02:21:39.702Z,993.56
2023-05-01T02:22:39.652Z,993.57
2023-05-01T02:23:39.651Z,993.59
2023-05-01T02:24:39.618Z,993.58
2023-05-01T02:25:39.636Z,993.59
2023-05-01T02:26:39.644Z,993.58
2023-05-01T02:27:39.596Z,993.58
2023-05-01T02:28:39.579Z,993.56
2023-05-01T02:29:39.580Z,993.54
2023-05-01T02:30:39.549Z,993.56
2023-05-01T02:31:39.606Z,993.54
2023-05-01T02:32:39.547Z,993.55
2023-05-01T02:33:39.561Z,993.45
2023-05-01T02:34:39.503Z,993.46
2023-05-01T02:35:39.500Z,993.45
2023-05-01T02:36:39.513Z,993.45
2023-05-01T02:37:39.484Z,993.43
2023-05-01T02:38:39.457Z,993.43
2023-05-01T02:39:39.448Z,993.40
2023-05-01T02:40:39.467Z,993.40
2023-05-01T02:41:39.423Z,993.37
2023-05-01T02:42:39.417Z,993.40
2023-05-01T02:43:39.433Z,993.36
2023-05-01T02:44:39.384Z,993.33
2023-05-01T02:45:39.417Z,993.31
2023-05-01T02:46:39.383Z,993.33
2023-05-01T02:47:39.392Z,993.31
2023-05-01T02:48:39.360Z,993.29
2023-05-01T02:49:39.314Z,993.25
2023-05-01T02:50:39.300Z,993.24
2023-05-01T02:51:39.316Z,993.25
2023-05-01T02:52:39.294Z,993.28
2023-05-01T02:53:40.020Z,993.26
2023-05-01T02:54:39.282Z,993.27
2023-05-01T02:55:39.247Z,993.23
2023-05-01T02:56:39.271Z,993.25
2023-05-01T02:57:39.220Z,993.22
2023-05-01T02:58:39.214Z,993.18
2023-05-01T02:59:39.194Z,993.19
2023-05-01T03:00:39.183Z,993.19
2023-05-01T03:01:39.274Z,993.17
2023-05-01T03:02:39.211Z,993.18
2023-05-01T03:03:39.137Z,993.08
2023-05-01T03:04:39.210Z,993.15
2023-05-01T03:05:39.107Z,993.08
2023-05-01T03:06:39.259Z,993.14
2023-05-01T03:07:39.077Z,993.10
2023-05-01T03:08:39.072Z,993.09
2023-05-01T03:09:39.059Z,993.08
2023-05-01T03:10:39.049Z,993.04
2023-05-01T03:11:39.132Z,993.04
2023-05-01T03:12:39.020Z,993.06
2023-05-01T03:13:39.031Z,993.06
2023-05-01T03:14:39.008Z,993.04
2023-05-01T03:15:39.020Z,993.02
2023-05-01T03:16:39.301Z,993.02
2023-05-01T03:17:39.002Z,993.02
2023-05-01T03:18:38.976Z,993.03
2023-05-01T03:19:39.115Z,992.99
2023-05-01T03:20:39.792Z,992.96
2023-05-01T03:21:38.902Z,992.97
2023-05-01T03:22:38.840Z,992.97
2023-05-01T03:23:38.833Z,993.00
2023-05-01T03:24:38.825Z,992.97
2023-05-01T03:25:38.790Z,992.93
2023-05-01T03:26:38.950Z,992.93
2023-05-01T03:27:38.790Z,992.91
2023-05-01T03:28:38.769Z,992.87
2023-05-01T03:29:38.751Z,992.85
2023-05-01T03:30:38.731Z,992.87
2023-05-01T03:31:38.837Z,992.87
2023-05-01T03:32:38.849Z,992.85
2023-05-01T03:33:38.701Z,992.89
2023-05-01T03:34:38.694Z,992.91
2023-05-01T03:35:38.742Z,992.88
2023-05-01T03:36:38.692Z,992.84
2023-05-01T03:37:38.639Z,992.82
2023-05-01T03:38:38.626Z,992.83
2023-05-01T03:39:38.625Z,992.82
2023-05-01T03:40:38.613Z,992.80
2023-05-01T03:41:38.612Z,992.75
2023-05-01T03:42:38.636Z,992.74
2023-05-01T03:43:38.580Z,992.72
2023-05-01T03:44:38.563Z,992.74
2023-05-01T03:45:38.571Z,992.70
2023-05-01T03:46:38.640Z,992.74
2023-05-01T03:47:38.562Z,992.71
2023-05-01T03:48:38.521Z,992.71
2023-05-01T03:49:38.527Z,992.71
2023-05-01T03:50:38.514Z,992.69
2023-05-01T03:51:38.483Z,992.70
2023-05-01T03:52:38.460Z,992.69
2023-05-01T03:53:38.446Z,992.70
2023-05-01T03:54:38.426Z,992.67
2023-05-01T03:55:38.457Z,992.68
2023-05-01T03:56:38.404Z,992.68
2023-05-01T03:57:38.384Z,992.68
2023-05-01T03:58:38.409Z,992.69
2023-05-01T03:59:39.314Z,992.66
2023-05-01T04:00:38.360Z,992.62
2023-05-01T04:01:38.406Z,992.62
2023-05-01T04:02:38.417Z,992.65
2023-05-01T04:03:38.534Z,992.64
2023-05-01T04:04:38.460Z,992.61
2023-05-01T04:05:38.303Z,992.61
2023-05-01T04:06:38.376Z,992.57
2023-05-01T04:07:38.282Z,992.59
2023-05-01T04:08:38.267Z,992.59
2023-05-01T04:09:38.226Z,992.58
2023-05-01T04:10:38.224Z,992.57
2023-05-01T04:11:38.240Z,992.59
2023-05-01T04:12:38.225Z,992.62
2023-05-01T04:13:38.207Z,992.64
2023-05-01T04:14:38.192Z,992.63
2023-05-01T04:15:38.227Z,992.61
2023-05-01T04:16:38.240Z,992.59
2023-05-01T04:17:38.164Z,992.63
2023-05-01T04:18:38.126Z,992.62
2023-05-01T04:19:38.114Z,992.62
2023-05-01T04:20:38.116Z,992.60
2023-05-01T04:21:38.126Z,992.60
2023-05-01T04:22:38.117Z,992.60
2023-05-01T04:23:38.145Z,992.57
2023-05-01T04:24:38.047Z,992.58
2023-05-01T04:25:38.033Z,992.57
2023-05-01T04:26:38.224Z,992.53
2023-05-01T04:27:38.006Z,992.59
2023-05-01T04:28:38.013Z,992.61
2023-05-01T04:29:37.997Z,992.57
2023-05-01T04:30:37.980Z,992.56
2023-05-01T04:31:38.009Z,992.58
2023-05-01T04:32:37.962Z,992.60
2023-05-01T04:33:38.042Z,992.56
2023-05-01T04:34:40.921Z,992.57
2023-05-01T04:35:37.932Z,992.53
2023-05-01T04:36:37.934Z,992.52
2023-05-01T04:37:37.885Z,992.50
2023-05-01T04:38:37.873Z,992.53
2023-05-01T04:39:37.874Z,992.52
2023-05-01T04:40:37.856Z,992.48
2023-05-01T04:41:37.882Z,992.50
2023-05-01T04:42:38.009Z,992.50
2023-05-01T04:43:37.812Z,992.51
2023-05-01T04:44:37.794Z,992.50
2023-05-01T04:45:37.913Z,992.47
2023-05-01T04:46:37.872Z,992.48
2023-05-01T04:47:37.844Z,992.45
2023-05-01T04:48:37.833Z,992.48
2023-05-01T04:49:37.736Z,992.48
2023-05-01T04:50:37.753Z,992.48
2023-05-01T04:51:37.730Z,992.45
2023-05-01T04:52:37.817Z,992.48
2023-05-01T04:53:37.901Z,992.45
2023-05-01T04:54:37.861Z,992.43
2023-05-01T04:55:37.889Z,992.41
2023-05-01T04:56:37.701Z,992.44
2023-05-01T04:57:37.648Z,992.44
2023-05-01T04:58:37.626Z,992.42
2023-05-01T04:59:37.878Z,992.44
2023-05-01T05:00:37.969Z,992.43
2023-05-01T05:01:38.335Z,992.41
2023-05-01T05:02:37.679Z,992.42
2023-05-01T05:03:37.744Z,992.43
2023-05-01T05:04:37.683Z,992.42
2023-05-01T05:05:37.527Z,992.45
2023-05-01T05:06:37.658Z,992.43
2023-05-01T05:07:37.487Z,992.40
2023-05-01T05:08:37.501Z,992.42
2023-05-01T05:09:37.484Z,992.38
2023-05-01T05:10:37.477Z,992.37
2023-05-01T05:11:37.497Z,992.38
2023-05-01T05:12:37.438Z,992.38
2023-05-01T05:13:37.421Z,992.37
2023-05-01T05:14:37.421Z,992.40
2023-05-01T05:15:37.395Z,992.40
2023-05-01T05:16:37.489Z,992.44
2023-05-01T05:17:37.432Z,992.35
2023-05-01T05:18:37.379Z,992.39
2023-05-01T05:19:37.360Z,992.36
2023-05-01T05:20:37.514Z,992.33
2023-05-01T05:21:37.362Z,992.35
2023-05-01T05:22:37.318Z,992.35
2023-05-01T05:23:37.296Z,992.34
2023-05-01T05:24:37.305Z,992.37
2023-05-01T05:25:37.263Z,992.42
2023-05-01T05:26:37.299Z,992.36
2023-05-01T05:27:37.242Z,992.36
2023-05-01T05:28:37.236Z,992.36
2023-05-01T05:29:37.236Z,992.35
2023-05-01T05:30:37.212Z,992.31
2023-05-01T05:31:37.269Z,992.31
2023-05-01T05:32:37.202Z,992.33
2023-05-01T05:33:37.154Z,992.35
2023-05-01T05:34:37.159Z,992.36
2023-05-01T05:35:37.131Z,992.35
2023-05-01T05:36:37.194Z,992.29
2023-05-01T05:37:37.126Z,992.28
2023-05-01T05:38:37.106Z,992.31
2023-05-01T05:39:37.089Z,992.30
2023-05-01T05:40:37.093Z,992.22
2023-05-01T05:41:37.099Z,992.23
2023-05-01T05:42:37.070Z,992.23
2023-05-01T05:43:37.037Z,992.22
2023-05-01T05:44:37.029Z,992.25
2023-05-01T05:45:37.081Z,992.20
2023-05-01T05:46:37.079Z,992.17
2023-05-01T05:47:37.065Z,992.19
2023-05-01T05:48:36.973Z,992.20
2023-05-01T05:49:36.965Z,992.19
2023-05-01T05:50:36.963Z,992.19
2023-05-01T05:51:36.956Z,992.24
2023-05-01T05:52:36.933Z,992.17
2023-05-01T05:53:36.923Z,992.15
2023-05-01T05:54:36.911Z,992.15
2023-05-01T05:55:36.887Z,992.10
2023-05-01T05:56:36.908Z,992.11
2023-05-01T05:57:36.858Z,992.06
2023-05-01T05:58:36.850Z,992.04
2023-05-01T05:59:36.846Z,992.09
2023-05-01T06:00:36.843Z,992.07
2023-05-01T06:01:36.821Z,992.10
2023-05-01T06:02:36.984Z,992.07
2023-05-01T06:03:36.848Z,992.09
2023-05-01T06:04:36.772Z,992.08
2023-05-01T06:05:36.779Z,992.07
2023-05-01T06:06:36.863Z,992.06
2023-05-01T06:07:36.731Z,992.08
2023-05-01T06:08:36.714Z,992.09
2023-05-01T06:09:36.714Z,992.04
2023-05-01T06:10:36.730Z,992.05
2023-05-01T06:11:36.706Z,992.07
2023-05-01T06:12:39.331Z,992.03
2023-05-01T06:13:37.652Z,992.01
2023-05-01T06:14:36.633Z,992.04
2023-05-01T06:15:36.670Z,991.99
2023-05-01T06:16:36.705Z,991.99
2023-05-01T06:17:36.611Z,992.01
2023-05-01T06:18:36.598Z,991.99
2023-05-01T06:19:36.575Z,992.01
2023-05-01T06:20:36.583Z,991.97
2023-05-01T06:21:36.573Z,992.00
2023-05-01T06:22:36.552Z,991.97
2023-05-01T06:23:36.537Z,991.95
2023-05-01T06:24:36.526Z,991.99
2023-05-01T06:25:36.519Z,992.00
2023-05-01T06:26:36.538Z,991.97
2023-05-01T06:27:36.461Z,991.95
2023-05-01T06:28:36.462Z,991.92
2023-05-01T06:29:36.444Z,991.97
2023-05-01T06:30:36.445Z,991.97
2023-05-01T06:31:36.481Z,991.97
2023-05-01T06:32:36.474Z,991.96
2023-05-01T06:33:36.384Z,991.97
2023-05-01T06:34:36.398Z,991.91
2023-05-01T06:35:36.358Z,991.89
2023-05-01T06:36:36.392Z,991.92
2023-05-01T06:37:36.347Z,991.94
2023-05-01T06:38:36.337Z,991.94
2023-05-01T06:39:36.319Z,991.87
2023-05-01T06:40:36.319Z,991.88
2023-05-01T06:41:36.345Z,991.89
2023-05-01T06:42:36.271Z,991.86
2023-05-01T06:43:36.265Z,991.81
2023-05-01T06:44:36.256Z,991.86
2023-05-01T06:45:36.230Z,991.88
2023-05-01T06:46:36.309Z,991.86
2023-05-01T06:47:36.203Z,991.84
2023-05-01T06:48:36.209Z,991.86
2023-05-01T06:49:36.181Z,991.82
2023-05-01T06:50:36.191Z,991.84
2023-05-01T06:51:36.187Z,991.84
2023-05-01T06:52:36.148Z,991.87
2023-05-01T06:53:36.203Z,991.86
2023-05-01T06:54:36.123Z,991.84
2023-05-01T06:55:36.106Z,991.85
2023-05-01T06:56:36.118Z,991.82
2023-05-01T06:57:36.109Z,991.85
2023-05-01T06:58:36.056Z,991.83
2023-05-01T06:59:36.058Z,991.80
2023-05-01T07:00:36.085Z,991.80
2023-05-01T07:01:36.089Z,991.84
2023-05-01T07:02:36.041Z,991.86
2023-05-01T07:03:36.811Z,991.78
2023-05-01T07:04:36.009Z,991.78
2023-05-01T07:05:35.970Z,991.78
2023-05-01T07:06:36.005Z,991.73
2023-05-01T07:07:36.583Z,991.74
2023-05-01T07:08:35.937Z,991.78
2023-05-01T07:09:35.929Z,991.76
2023-05-01T07:10:35.917Z,991.75
2023-05-01T07:11:35.901Z,991.72
2023-05-01T07:12:35.909Z,991.74
2023-05-01T07:13:35.872Z,991.76
2023-05-01T07:14:35.956Z,991.71
2023-05-01T07:15:36.795Z,991.72
2023-05-01T07:16:35.877Z,991.68
2023-05-01T07:17:35.931Z,991.65
2023-05-01T07:18:35.797Z,991.71
2023-05-01T07:19:35.789Z,991.65
2023-05-01T07:20:35.795Z,991.68
2023-05-01T07:21:35.785Z,991.67
2023-05-01T07:22:35.772Z,991.68
2023-05-01T07:23:35.762Z,991.63
2023-05-01T07:24:35.740Z,991.64
2023-05-01T07:25:35.709Z,991.62
2023-05-01T07:26:35.713Z,991.63
2023-05-01T07:27:35.729Z,991.67
2023-05-01T07:28:35.667Z,991.65
2023-05-01T07:29:35.669Z,991.60
2023-05-01T07:30:35.667Z,991.59
2023-05-01T07:31:35.684Z,991.58
2023-05-01T07:32:35.692Z,991.61
2023-05-01T07:33:35.612Z,991.62
2023-05-01T07:34:35.600Z,991.54
2023-05-01T07:35:35.600Z,991.52
2023-05-01T07:36:35.579Z,991.55
2023-05-01T07:37:35.590Z,991.50
2023-05-01T07:38:35.542Z,991.51
2023-05-01T07:39:35.537Z,991.49
2023-05-01T07:40:35.534Z,991.51
2023-05-01T07:41:35.501Z,991.49
2023-05-01T07:42:35.517Z,991.45
2023-05-01T07:43:35.504Z,991.47
2023-05-01T07:44:35.474Z,991.48
2023-05-01T07:45:35.495Z,991.49
2023-05-01T07:46:35.482Z,991.50
2023-05-01T07:47:35.533Z,991.44
2023-05-01T07:48:36.939Z,991.40
2023-05-01T07:49:35.409Z,991.47
2023-05-01T07:50:35.395Z,991.34
2023-05-01T07:51:35.433Z,991.39
2023-05-01T07:52:35.396Z,991.39
2023-05-01T07:53:35.349Z,991.36
2023-05-01T07:54:35.353Z,991.33
2023-05-01T07:55:35.332Z,991.35
2023-05-01T07:56:35.311Z,991.31
2023-05-01T07:57:35.324Z,991.28
2023-05-01T07:58:35.277Z,991.28
2023-05-01T07:59:35.268Z,991.31
2023-05-01T08:00:35.260Z,991.26
2023-05-01T08:01:35.246Z,991.27
2023-05-01T08:02:35.359Z,991.30
2023-05-01T08:03:35.255Z,991.26
2023-05-01T08:04:35.293Z,991.26
2023-05-01T08:05:35.187Z,991.27
2023-05-01T08:06:35.245Z,991.31
2023-05-01T08:07:35.194Z,991.33
2023-05-01T08:08:35.146Z,991.28
2023-05-01T08:09:35.132Z,991.25
2023-05-01T08:10:35.350Z,991.26
2023-05-01T08:11:35.297Z,991.28
2023-05-01T08:12:35.276Z,991.29
2023-05-01T08:13:35.096Z,991.35
2023-05-01T08:14:35.072Z,991.31
2023-05-01T08:15:35.134Z,991.35
2023-05-01T08:16:35.076Z,991.30
2023-05-01T08:17:35.125Z,991.24
2023-05-01T08:18:35.023Z,991.27
2023-05-01T08:19:35.017Z,991.30
2023-05-01T08:20:35.000Z,991.24
2023-05-01T08:21:35.082Z,991.23
2023-05-01T08:22:34.959Z,991.22
2023-05-01T08:23:34.949Z,991.21
2023-05-01T08:24:34.953Z,991.24
2023-05-01T08:25:34.936Z,991.19
2023-05-01T08:26:34.951Z,991.17
2023-05-01T08:27:34.902Z,991.16
2023-05-01T08:28:34.895Z,991.13
2023-05-01T08:29:34.883Z,991.16
2023-05-01T08:30:34.954Z,991.07
2023-05-01T08:31:34.951Z,991.09
2023-05-01T08:32:34.906Z,991.15
2023-05-01T08:33:34.824Z,991.05
2023-05-01T08:34:34.815Z,991.10
2023-05-01T08:35:34.798Z,991.07
2023-05-01T08:36:34.816Z,991.07
2023-05-01T08:37:34.771Z,991.03
2023-05-01T08:38:34.752Z,991.09
2023-05-01T08:39:34.757Z,991.06
2023-05-01T08:40:34.732Z,991.05
2023-05-01T08:41:34.752Z,991.07
2023-05-01T08:42:34.724Z,991.09
2023-05-01T08:43:34.773Z,991.06
2023-05-01T08:44:34.684Z,991.05
2023-05-01T08:45:34.678Z,991.03
2023-05-01T08:46:34.766Z,991.02
2023-05-01T08:47:34.656Z,991.07
2023-05-01T08:48:34.629Z,991.02
2023-05-01T08:49:34.623Z,991.01
2023-05-01T08:50:34.598Z,991.05
2023-05-01T08:51:34.628Z,991.02
2023-05-01T08:52:34.587Z,990.97
2023-05-01T08:53:34.571Z,990.99
2023-05-01T08:54:34.549Z,991.01
2023-05-01T08:55:34.567Z,991.02
2023-05-01T08:56:34.550Z,991.05
2023-05-01T08:57:34.522Z,990.98
2023-05-01T08:58:34.497Z,991.01
2023-05-01T08:59:34.495Z,990.96
2023-05-01T09:00:34.467Z,990.99
2023-05-01T09:01:34.547Z,990.98
2023-05-01T09:02:34.490Z,990.95
2023-05-01T09:03:34.508Z,990.96
2023-05-01T09:04:34.435Z,990.97
2023-05-01T09:05:34.418Z,990.96
2023-05-01T09:06:34.556Z,990.97
2023-05-01T09:07:34.394Z,990.88
2023-05-01T09:08:34.354Z,990.89
2023-05-01T09:09:34.349Z,990.90
2023-05-01T09:10:34.581Z,990.87
2023-05-01T09:11:34.353Z,990.88
2023-05-01T09:12:34.311Z,990.83
2023-05-01T09:13:34.302Z,990.86
2023-05-01T09:14:34.283Z,990.80
2023-05-01T09:15:34.270Z,990.80
2023-05-01T09:16:34.343Z,990.79
2023-05-01T09:17:34.352Z,990.83
2023-05-01T09:18:34.398Z,990.81
2023-05-01T09:19:34.225Z,990.84
2023-05-01T09:20:34.345Z,990.86
2023-05-01T09:21:34.310Z,990.90
2023-05-01T09:22:34.180Z,990.83
2023-05-01T09:23:34.346Z,990.83
2023-05-01T09:24:34.248Z,990.81
2023-05-01T09:25:34.432Z,990.77
2023-05-01T09:26:34.147Z,990.80
2023-05-01T09:27:34.156Z,990.76
2023-05-01T09:28:34.327Z,990.72
2023-05-01T09:29:34.094Z,990.67
2023-05-01T09:30:34.083Z,990.68
2023-05-01T09:31:34.320Z,990.63
2023-05-01T09:32:34.362Z,990.68
2023-05-01T09:33:34.150Z,990.69
2023-05-01T09:34:34.025Z,990.66
2023-05-01T09:35:34.036Z,990.65
2023-05-01T09:36:34.030Z,990.67
2023-05-01T09:37:34.047Z,990.66
2023-05-01T09:38:33.974Z,990.67
2023-05-01T09:39:33.962Z,990.65
2023-05-01T09:40:33.974Z,990.58
2023-05-01T09:41:34.031Z,990.60
2023-05-01T09:42:33.923Z,990.58
2023-05-01T09:43:33.934Z,990.60
2023-05-01T09:44:33.917Z,990.57
2023-05-01T09:45:34.008Z,990.56
2023-05-01T09:46:34.097Z,990.54
2023-05-01T09:47:33.983Z,990.59
2023-05-01T09:48:35.673Z,990.58
2023-05-01T09:49:33.855Z,990.61
2023-05-01T09:50:33.957Z,990.57
2023-05-01T09:51:33.818Z,990.61
2023-05-01T09:52:33.969Z,990.53
2023-05-01T09:53:33.959Z,990.50
2023-05-01T09:54:33.772Z,990.49
2023-05-01T09:55:33.776Z,990.54
2023-05-01T09:56:33.900Z,990.52
2023-05-01T09:57:33.841Z,990.47
2023-05-01T09:58:33.718Z,990.45
2023-05-01T09:59:33.783Z,990.47
2023-05-01T10:00:33.707Z,990.47
2023-05-01T10:01:33.755Z,990.46
2023-05-01T10:02:33.810Z,990.44
2023-05-01T10:03:33.698Z,990.41
2023-05-01T10:04:33.670Z,990.43
2023-05-01T10:05:33.640Z,990.42
2023-05-01T10:06:33.648Z,990.47
2023-05-01T10:07:33.645Z,990.42
2023-05-01T10:08:33.684Z,990.39
2023-05-01T10:09:33.592Z,990.40
2023-05-01T10:10:33.580Z,990.41
2023-05-01T10:11:33.649Z,990.41
2023-05-01T10:12:33.573Z,990.39
2023-05-01T10:13:33.542Z,990.37
2023-05-01T10:14:33.523Z,990.36
2023-05-01T10:15:33.525Z,990.34
2023-05-01T10:16:33.512Z,990.38
2023-05-01T10:17:33.730Z,990.35
2023-05-01T10:18:33.485Z,990.28
2023-05-01T10:19:33.726Z,990.32
2023-05-01T10:20:33.450Z,990.24
2023-05-01T10:21:33.586Z,990.28
2023-05-01T10:22:33.442Z,990.29
2023-05-01T10:23:33.649Z,990.30
2023-05-01T10:24:33.407Z,990.26
2023-05-01T10:25:33.395Z,990.27
2023-05-01T10:26:33.402Z,990.34
2023-05-01T10:27:33.384Z,990.34
2023-05-01T10:28:33.348Z,990.33
2023-05-01T10:29:33.333Z,990.33
2023-05-01T10:30:33.420Z,990.32
2023-05-01T10:31:33.563Z,990.28
2023-05-01T10:32:33.324Z,990.28
2023-05-01T10:33:33.309Z,990.25
2023-05-01T10:34:33.406Z,990.23
2023-05-01T10:35:33.469Z,990.18
2023-05-01T10:36:33.353Z,990.24
2023-05-01T10:37:33.550Z,990.19
2023-05-01T10:38:33.215Z,990.18
2023-05-01T10:39:33.330Z,990.21
2023-05-01T10:40:33.336Z,990.20
2023-05-01T10:41:33.173Z,990.20
2023-05-01T10:42:33.182Z,990.19
2023-05-01T10:43:33.421Z,990.17
2023-05-01T10:44:33.203Z,990.11
2023-05-01T10:45:33.950Z,990.10
2023-05-01T10:46:33.416Z,990.04
2023-05-01T10:47:33.419Z,990.04
2023-05-01T10:48:33.228Z,990.04
2023-05-01T10:49:33.072Z,990.00
2023-05-01T10:50:33.052Z,990.00
2023-05-01T10:51:33.046Z,990.00
2023-05-01T10:52:33.044Z,989.88
2023-05-01T10:53:33.042Z,989.88
2023-05-01T10:54:33.944Z,989.86
2023-05-01T10:55:32.989Z,989.88
2023-05-01T10:56:32.983Z,989.86
2023-05-01T10:57:33.027Z,989.80
2023-05-01T10:58:33.783Z,989.79
2023-05-01T10:59:32.940Z,989.75
2023-05-01T11:00:32.930Z,989.74
2023-05-01T11:01:33.054Z,989.72
2023-05-01T11:02:32.951Z,989.71
2023-05-01T11:03:32.890Z,989.67
2023-05-01T11:04:32.903Z,989.60
2023-05-01T11:05:38.472Z,989.66
2023-05-01T11:06:34.180Z,989.64
2023-05-01T11:07:32.895Z,989.62
2023-05-01T11:08:32.913Z,989.69
2023-05-01T11:09:33.087Z,989.63
2023-05-01T11:10:33.014Z,989.66
2023-05-01T11:11:32.879Z,989.63
2023-05-01T11:12:32.805Z,989.66
2023-05-01T11:13:32.998Z,989.66
2023-05-01T11:14:32.745Z,989.65
2023-05-01T11:15:37.121Z,989.62
2023-05-01T11:16:32.892Z,989.60
2023-05-01T11:17:32.831Z,989.59
2023-05-01T11:18:32.681Z,989.63
2023-05-01T11:19:32.661Z,989.56
2023-05-01T11:20:32.663Z,989.55
2023-05-01T11:21:32.655Z,989.59
2023-05-01T11:22:32.654Z,989.55
2023-05-01T11:23:32.622Z,989.58
2023-05-01T11:24:33.555Z,989.57
2023-05-01T11:25:32.603Z,989.50
2023-05-01T11:26:32.758Z,989.45
2023-05-01T11:27:32.692Z,989.48
2023-05-01T11:28:32.566Z,989.50
2023-05-01T11:29:32.540Z,989.48
2023-05-01T11:30:32.529Z,989.48
2023-05-01T11:31:32.577Z,989.54
2023-05-01T11:32:32.579Z,989.52
2023-05-01T11:33:32.511Z,989.48
2023-05-01T11:34:32.481Z,989.53
2023-05-01T11:35:32.463Z,989.49
2023-05-01T11:36:32.476Z,989.49
2023-05-01T11:37:32.476Z,989.50
2023-05-01T11:38:32.461Z,989.49
2023-05-01T11:39:32.408Z,989.51
2023-05-01T11:40:32.407Z,989.49
2023-05-01T11:41:32.398Z,989.45
2023-05-01T11:42:32.485Z,989.47
2023-05-01T11:43:32.367Z,989.46
2023-05-01T11:44:32.336Z,989.46
2023-05-01T11:45:32.403Z,989.46
2023-05-01T11:46:32.353Z,989.43
2023-05-01T11:47:32.409Z,989.41
2023-05-01T11:48:32.312Z,989.37
2023-05-01T11:49:32.279Z,989.36
2023-05-01T11:50:32.468Z,989.36
2023-05-01T11:51:32.256Z,989.36
2023-05-01T11:52:32.272Z,989.36
2023-05-01T11:53:32.270Z,989.34
2023-05-01T11:54:32.220Z,989.36
2023-05-01T11:55:32.188Z,989.33
2023-05-01T11:56:32.224Z,989.34
2023-05-01T11:57:32.200Z,989.35
2023-05-01T11:58:32.191Z,989.32
2023-05-01T11:59:32.195Z,989.32
2023-05-01T12:00:32.136Z,989.25
2023-05-01T12:01:32.119Z,989.31
2023-05-01T12:02:32.301Z,989.28
2023-05-01T12:03:32.297Z,989.27
2023-05-01T12:04:32.637Z,989.27
2023-05-01T12:05:32.103Z,989.27
2023-05-01T12:06:32.106Z,989.24
2023-05-01T12:07:32.085Z,989.25
2023-05-01T12:08:32.037Z,989.26
2023-05-01T12:09:32.017Z,989.25
2023-05-01T12:10:34.055Z,989.26
2023-05-01T12:11:31.982Z,989.31
2023-05-01T12:12:32.017Z,989.25
2023-05-01T12:13:31.962Z,989.23
2023-05-01T12:14:31.962Z,989.29
2023-05-01T12:15:31.932Z,989.25
2023-05-01T12:16:32.810Z,989.25
2023-05-01T12:17:31.982Z,989.29
2023-05-01T12:18:31.911Z,989.29
2023-05-01T12:19:31.887Z,989.29
2023-05-01T12:20:31.897Z,989.25
2023-05-01T12:21:31.869Z,989.24
2023-05-01T12:22:31.871Z,989.28
2023-05-01T12:23:31.831Z,989.25
2023-05-01T12:24:31.831Z,989.27
2023-05-01T12:25:31.801Z,989.26
2023-05-01T12:26:31.790Z,989.25
2023-05-01T12:27:31.779Z,989.21
2023-05-01T12:28:31.790Z,989.26
2023-05-01T12:29:31.744Z,989.24